createdAt,value
2023-03-24T00:01:26.198Z,30.48
2023-03-24T00:05:25.678Z,30.53
2023-03-24T00:09:25.705Z,30.56
2023-03-24T00:13:25.722Z,30.47
2023-03-24T00:17:25.596Z,30.48
2023-03-24T00:21:25.638Z,30.46
2023-03-24T00:25:25.494Z,30.49
2023-03-24T00:29:25.622Z,30.47
2023-03-24T00:33:25.461Z,30.54
2023-03-24T00:37:25.418Z,30.51
2023-03-24T00:41:25.413Z,30.51
2023-03-24T00:45:25.359Z,30.50
2023-03-24T00:49:25.292Z,30.54
2023-03-24T00:53:25.702Z,30.58
2023-03-24T00:57:25.210Z,30.54
2023-03-24T01:01:25.238Z,30.54
2023-03-24T01:05:25.166Z,30.57
2023-03-24T01:09:25.233Z,30.60
2023-03-24T01:13:25.067Z,30.60
2023-03-24T01:17:25.089Z,30.57
2023-03-24T01:21:25.010Z,30.61
2023-03-24T01:25:25.093Z,30.64
2023-03-24T01:29:24.901Z,30.59
2023-03-24T01:33:24.878Z,30.61
2023-03-24T01:37:24.904Z,30.64
2023-03-24T01:41:25.039Z,30.60
2023-03-24T01:45:25.134Z,30.70
2023-03-24T01:49:25.145Z,30.67
2023-03-24T01:53:25.235Z,30.65
2023-03-24T01:57:25.310Z,30.70
2023-03-24T02:01:25.852Z,30.72
2023-03-24T02:05:25.576Z,30.73
2023-03-24T02:09:25.599Z,30.67
2023-03-24T02:13:25.736Z,30.73
2023-03-24T02:17:25.891Z,30.70
2023-03-24T02:21:25.992Z,30.78
2023-03-24T02:25:26.248Z,30.71
2023-03-24T02:29:26.155Z,30.72
2023-03-24T02:33:26.220Z,30.75
2023-03-24T02:37:26.415Z,30.82
2023-03-24T02:41:26.472Z,30.81
2023-03-24T02:45:26.673Z,30.80
2023-03-24T02:49:27.827Z,30.74
2023-03-24T02:53:26.932Z,30.75
2023-03-24T02:57:26.947Z,30.79
2023-03-24T03:01:27.932Z,30.83
2023-03-24T03:05:27.220Z,30.84
2023-03-24T03:09:27.451Z,30.85
2023-03-24T03:13:27.508Z,30.81
2023-03-24T03:17:27.656Z,30.86
2023-03-24T03:21:27.855Z,30.82
2023-03-24T03:25:27.972Z,30.84
2023-03-24T03:29:28.217Z,30.88
2023-03-24T03:33:28.320Z,30.80
2023-03-24T03:37:28.556Z,30.88
2023-03-24T03:41:28.608Z,30.86
2023-03-24T03:45:28.756Z,30.91
2023-03-24T03:49:28.936Z,30.88
2023-03-24T03:53:29.113Z,30.91
2023-03-24T03:57:29.311Z,30.89
2023-03-24T04:01:29.466Z,30.94
2023-03-24T04:05:29.387Z,30.92
2023-03-24T04:09:30.303Z,30.92
2023-03-24T04:13:29.307Z,30.97
2023-03-24T04:17:29.275Z,31.00
2023-03-24T04:21:29.298Z,30.97
2023-03-24T04:25:29.288Z,30.93
2023-03-24T04:29:29.145Z,30.93
2023-03-24T04:33:29.139Z,30.96
2023-03-24T04:37:29.095Z,31.00
2023-03-24T04:41:29.422Z,30.98
2023-03-24T04:45:29.522Z,30.98
2023-03-24T04:49:29.817Z,30.98
2023-03-24T04:53:29.813Z,30.99
2023-03-24T04:57:30.028Z,30.92
2023-03-24T05:01:30.324Z,31.00
2023-03-24T05:05:30.376Z,31.03
2023-03-24T05:09:30.550Z,31.03
2023-03-24T05:13:30.916Z,30.95
2023-03-24T05:17:31.048Z,30.96
2023-03-24T05:21:33.325Z,31.04
2023-03-24T05:25:31.368Z,31.02
2023-03-24T05:29:31.567Z,30.99
2023-03-24T05:33:31.746Z,30.97
2023-03-24T05:37:31.912Z,30.99
2023-03-24T05:41:32.208Z,31.02
2023-03-24T05:45:32.284Z,31.03
2023-03-24T05:49:32.554Z,31.05
2023-03-24T05:53:32.742Z,31.02
2023-03-24T05:57:32.896Z,31.01
2023-03-24T06:01:33.151Z,31.00
2023-03-24T06:05:33.304Z,30.98
2023-03-24T06:09:33.461Z,31.04
2023-03-24T06:13:33.647Z,30.98
2023-03-24T06:17:33.857Z,30.99
2023-03-24T06:21:35.311Z,30.96
2023-03-24T06:25:34.199Z,30.96
2023-03-24T06:29:34.429Z,30.95
2023-03-24T06:33:34.615Z,31.21
2023-03-24T06:37:34.911Z,31.95
2023-03-24T06:41:35.331Z,32.64
2023-03-24T06:45:35.044Z,33.14
2023-03-24T06:49:35.333Z,33.95
2023-03-24T06:53:35.364Z,34.85
2023-03-24T06:57:38.368Z,34.68
2023-03-24T07:01:37.447Z,34.54
2023-03-24T07:05:36.016Z,34.67
2023-03-24T07:09:35.445Z,34.54
2023-03-24T07:13:35.345Z,34.69
2023-03-24T07:17:35.431Z,34.72
2023-03-24T07:21:35.344Z,34.52
2023-03-24T07:25:35.263Z,33.99
2023-03-24T07:29:35.459Z,34.08
2023-03-24T07:33:35.598Z,33.31
2023-03-24T07:37:35.651Z,32.55
2023-03-24T07:41:35.859Z,32.42
2023-03-24T07:45:36.034Z,32.93
2023-03-24T07:49:36.202Z,33.05
2023-03-24T07:53:36.757Z,32.99
2023-03-24T07:57:36.053Z,33.63
2023-03-24T08:01:36.218Z,33.70
2023-03-24T08:05:36.545Z,34.16
2023-03-24T08:09:36.502Z,34.20
2023-03-24T08:13:36.485Z,33.94
2023-03-24T08:17:36.426Z,33.02
2023-03-24T08:21:36.351Z,33.72
2023-03-24T08:25:36.394Z,33.78
2023-03-24T08:29:36.274Z,32.37
2023-03-24T08:33:36.239Z,32.04
2023-03-24T08:37:36.223Z,32.75
2023-03-24T08:41:36.165Z,33.69
2023-03-24T08:45:36.186Z,34.03
2023-03-24T08:49:36.219Z,34.32
2023-03-24T08:53:36.494Z,34.64
2023-03-24T08:57:36.373Z,34.89
2023-03-24T09:01:36.627Z,34.76
2023-03-24T09:05:44.496Z,33.38
2023-03-24T09:09:37.293Z,33.46
2023-03-24T09:13:36.194Z,33.02
2023-03-24T09:17:36.451Z,31.77
2023-03-24T09:21:36.543Z,31.30
2023-03-24T09:25:36.698Z,31.03
2023-03-24T09:29:36.885Z,30.72
2023-03-24T09:33:36.823Z,30.80
2023-03-24T09:37:36.994Z,30.97
2023-03-24T09:41:37.190Z,31.20
2023-03-24T09:45:37.337Z,31.44
2023-03-24T09:49:37.651Z,31.62
2023-03-24T09:53:37.720Z,31.77
2023-03-24T09:57:37.837Z,31.93
2023-03-24T10:01:37.956Z,31.52
2023-03-24T10:05:38.188Z,31.28
2023-03-24T10:09:38.436Z,30.96
2023-03-24T10:13:38.049Z,30.61
2023-03-24T10:17:38.090Z,30.52
2023-03-24T10:21:44.925Z,30.41
2023-03-24T10:25:37.922Z,30.46
2023-03-24T10:29:37.929Z,30.50
2023-03-24T10:33:38.071Z,32.61
2023-03-24T10:37:38.001Z,33.55
2023-03-24T10:41:37.785Z,34.08
2023-03-24T10:45:37.763Z,34.83
2023-03-24T10:49:37.779Z,35.28
2023-03-24T10:53:37.670Z,35.67
2023-03-24T10:57:37.628Z,36.17
2023-03-24T11:01:37.679Z,36.19
2023-03-24T11:05:37.565Z,36.40
2023-03-24T11:09:37.563Z,36.76
2023-03-24T11:13:37.540Z,36.79
2023-03-24T11:17:37.666Z,36.70
2023-03-24T11:21:37.691Z,36.67
2023-03-24T11:25:38.008Z,35.65
2023-03-24T11:29:37.926Z,33.68
2023-03-24T11:33:37.841Z,33.70
2023-03-24T11:37:37.985Z,34.34
2023-03-24T11:41:37.802Z,34.67
2023-03-24T11:45:37.859Z,35.11
2023-03-24T11:49:37.657Z,35.22
2023-03-24T11:53:37.909Z,35.60
2023-03-24T11:57:37.716Z,36.03
2023-03-24T12:01:37.633Z,36.45
2023-03-24T12:05:38.115Z,36.79
2023-03-24T12:09:37.602Z,36.84
2023-03-24T12:13:37.528Z,36.77
2023-03-24T12:17:37.599Z,37.11
2023-03-24T12:21:37.591Z,37.50
2023-03-24T12:25:39.547Z,37.18
2023-03-24T12:29:37.844Z,35.87
2023-03-24T12:33:38.177Z,35.88
2023-03-24T12:37:38.110Z,35.58
2023-03-24T12:41:37.729Z,35.22
2023-03-24T12:45:37.745Z,35.17
2023-03-24T12:49:37.591Z,35.04
2023-03-24T12:53:37.574Z,34.96
2023-03-24T12:57:37.506Z,34.81
2023-03-24T13:01:37.562Z,34.76
2023-03-24T13:05:37.459Z,34.73
2023-03-24T13:09:37.513Z,34.59
2023-03-24T13:13:37.717Z,34.43
2023-03-24T13:17:37.856Z,34.36
2023-03-24T13:21:38.009Z,34.16
2023-03-24T13:25:38.044Z,33.96
2023-03-24T13:29:47.998Z,33.82
2023-03-24T13:33:39.096Z,33.70
2023-03-24T13:37:38.099Z,33.60
2023-03-24T13:41:38.030Z,33.49
2023-03-24T13:45:38.178Z,33.34
2023-03-24T13:49:38.090Z,33.25
2023-03-24T13:53:37.971Z,33.12
2023-03-24T13:57:38.024Z,33.08
2023-03-24T14:01:38.048Z,33.06
2023-03-24T14:05:37.868Z,32.91
2023-03-24T14:09:37.902Z,32.84
2023-03-24T14:13:37.853Z,32.81
2023-03-24T14:17:37.820Z,33.02
2023-03-24T14:21:37.695Z,33.00
2023-03-24T14:25:37.720Z,32.84
2023-03-24T14:29:37.813Z,32.75
2023-03-24T14:33:37.697Z,32.64
2023-03-24T14:37:37.598Z,32.53
2023-03-24T14:41:37.551Z,32.51
2023-03-24T14:45:37.637Z,32.48
2023-03-24T14:49:37.537Z,32.38
2023-03-24T14:53:37.482Z,32.26
2023-03-24T14:57:37.435Z,32.24
2023-03-24T15:01:37.480Z,32.13
2023-03-24T15:05:37.396Z,32.28
2023-03-24T15:09:37.329Z,32.45
2023-03-24T15:13:37.319Z,32.53
2023-03-24T15:17:37.419Z,32.42
2023-03-24T15:21:37.242Z,32.42
2023-03-24T15:25:37.402Z,32.45
2023-03-24T15:29:37.415Z,32.58
2023-03-24T15:33:37.563Z,32.61
2023-03-24T15:37:40.636Z,32.71
2023-03-24T15:41:37.644Z,32.70
2023-03-24T15:45:37.674Z,32.74
2023-03-24T15:49:37.594Z,32.76
2023-03-24T15:53:37.616Z,32.80
2023-03-24T15:57:37.535Z,32.88
2023-03-24T16:01:39.132Z,32.95
2023-03-24T16:05:37.456Z,32.97
2023-03-24T16:09:37.570Z,32.98
2023-03-24T16:13:37.459Z,33.03
2023-03-24T16:17:37.407Z,33.05
2023-03-24T16:21:37.382Z,33.04
2023-03-24T16:25:37.403Z,33.04
2023-03-24T16:29:37.359Z,33.03
2023-03-24T16:33:37.605Z,33.02
2023-03-24T16:37:37.275Z,33.03
2023-03-24T16:41:37.224Z,33.00
2023-03-24T16:45:37.178Z,32.99
2023-03-24T16:49:37.164Z,33.00
2023-03-24T16:53:37.055Z,32.99
2023-03-24T16:57:38.376Z,32.91
2023-03-24T17:01:37.111Z,32.95
2023-03-24T17:05:37.094Z,32.97
2023-03-24T17:09:36.928Z,32.99
2023-03-24T17:13:36.897Z,33.01
2023-03-24T17:17:36.909Z,32.99
2023-03-24T17:21:36.918Z,33.01
2023-03-24T17:25:36.992Z,33.03
2023-03-24T17:29:37.091Z,33.05
2023-03-24T17:33:37.205Z,33.03
2023-03-24T17:37:37.322Z,33.01
2023-03-24T17:41:37.336Z,33.05
2023-03-24T17:45:37.470Z,33.02
2023-03-24T17:49:37.571Z,33.03
2023-03-24T17:53:37.678Z,33.01
2023-03-24T17:57:37.816Z,32.99
2023-03-24T18:01:38.051Z,32.97
2023-03-24T18:05:38.164Z,33.01
2023-03-24T18:09:38.250Z,33.03
2023-03-24T18:13:38.452Z,33.04
2023-03-24T18:17:38.581Z,33.07
2023-03-24T18:21:38.730Z,33.08
2023-03-24T18:25:38.989Z,33.11
2023-03-24T18:29:39.154Z,33.14
2023-03-24T18:33:39.349Z,33.15
2023-03-24T18:37:39.521Z,33.18
2023-03-24T18:41:39.752Z,33.19
2023-03-24T18:45:39.941Z,33.24
2023-03-24T18:49:40.167Z,33.21
2023-03-24T18:53:40.430Z,33.21
2023-03-24T18:57:40.621Z,33.23
2023-03-24T19:01:40.779Z,33.16
2023-03-24T19:05:41.059Z,33.27
2023-03-24T19:09:41.173Z,33.25
2023-03-24T19:13:40.912Z,33.20
2023-03-24T19:17:40.927Z,33.19
2023-03-24T19:21:40.834Z,33.29
2023-03-24T19:25:40.864Z,33.27
2023-03-24T19:29:40.901Z,33.29
2023-03-24T19:33:40.745Z,33.22
2023-03-24T19:37:40.701Z,33.24
2023-03-24T19:41:40.673Z,33.25
2023-03-24T19:45:40.706Z,33.15
2023-03-24T19:49:40.614Z,33.19
2023-03-24T19:53:40.706Z,33.20
2023-03-24T19:57:40.574Z,33.15
2023-03-24T20:01:40.578Z,33.18
2023-03-24T20:05:40.484Z,33.21
2023-03-24T20:09:40.447Z,33.25
2023-03-24T20:13:40.403Z,33.17
2023-03-24T20:17:40.362Z,33.17
2023-03-24T20:21:40.433Z,33.19
2023-03-24T20:25:40.608Z,33.21
2023-03-24T20:29:40.786Z,33.17
2023-03-24T20:33:40.941Z,33.20
2023-03-24T20:37:41.081Z,33.18
2023-03-24T20:41:41.317Z,33.19
2023-03-24T20:45:41.365Z,33.18
2023-03-24T20:49:41.441Z,33.25
2023-03-24T20:53:41.466Z,33.20
2023-03-24T20:57:41.572Z,33.21
2023-03-24T21:01:41.477Z,33.21
2023-03-24T21:05:41.484Z,33.19
2023-03-24T21:09:41.433Z,33.16
2023-03-24T21:13:41.394Z,33.17
2023-03-24T21:17:41.377Z,33.18
2023-03-24T21:21:41.361Z,33.18
2023-03-24T21:25:41.333Z,33.16
2023-03-24T21:29:41.313Z,33.12
2023-03-24T21:33:41.272Z,33.16
2023-03-24T21:37:41.251Z,33.15
2023-03-24T21:41:41.692Z,33.17
2023-03-24T21:45:41.259Z,33.18
2023-03-24T21:49:41.246Z,33.17
2023-03-24T21:53:41.271Z,33.18
2023-03-24T21:57:41.194Z,33.19
2023-03-24T22:01:41.259Z,33.19
2023-03-24T22:05:41.189Z,33.21
2023-03-24T22:09:41.206Z,33.22
2023-03-24T22:13:41.193Z,33.23
2023-03-24T22:17:41.232Z,33.21
2023-03-24T22:21:41.205Z,33.23
2023-03-24T22:25:41.271Z,33.21
2023-03-24T22:29:41.225Z,33.22
2023-03-24T22:33:41.757Z,33.21
2023-03-24T22:37:41.258Z,33.25
2023-03-24T22:41:41.332Z,33.21
2023-03-24T22:45:41.357Z,33.22
2023-03-24T22:49:41.382Z,33.24
2023-03-24T22:53:41.413Z,33.26
2023-03-24T22:57:41.439Z,33.27
2023-03-24T23:01:41.429Z,33.25
2023-03-24T23:05:41.471Z,33.23
2023-03-24T23:09:41.487Z,33.26
2023-03-24T23:13:41.502Z,33.23
2023-03-24T23:17:41.624Z,33.27
2023-03-24T23:21:41.497Z,33.26
2023-03-24T23:25:41.592Z,33.30
2023-03-24T23:29:41.459Z,33.27
2023-03-24T23:33:41.480Z,33.26
2023-03-24T23:37:41.363Z,33.27
2023-03-24T23:41:41.323Z,33.26
2023-03-24T23:45:41.811Z,33.30
2023-03-24T23:49:41.294Z,33.32
2023-03-24T23:53:41.200Z,33.32
2023-03-24T23:57:41.213Z,33.34
